Home > Products > Valid Products > TAF

000
FTUS42 KMHX 271100
TAFEWN
TAF
KEWN 271130Z 2712/2812 18004KT P6SM SCT025 BKN050
     FM271500 26011G18KT P6SM SCT025 BKN050
     FM272300 31007KT P6SM SCT050=



000
FTUS42 KMHX 270500
TAFEWN
TAF
KEWN 270536Z 2706/2806 30005KT P6SM BKN015
     FM270900 VRB05KT P6SM SCT015 BKN050
     FM271500 26011G18KT P6SM SCT025 BKN050
     FM272300 31008KT P6SM SCT050=



000
FTUS42 KMHX 262300
TAFEWN
TAF
KEWN 262340Z 2700/2724 31010KT P6SM BKN015
     FM270200 28005KT P6SM SCT025 BKN050
     FM271500 25010G17KT P6SM BKN050=



000
FTUS42 KMHX 262000 AAA
TAFEWN
TAF AMD
KEWN 262012Z 2620/2718 31012G20KT 6SM BR SCT007 OVC015
      TEMPO 2620/2622 2SM -DZ BKN007
     FM262200 31010KT P6SM BKN015
     FM270300 30005KT P6SM SCT025 BKN050
     FM270800 26002KT 3SM BR BKN007
     FM271500 25008G15KT P6SM BKN050=



000
FTUS42 KMHX 261700
TAFEWN
TAF
KEWN 261739Z 2618/2718 33012G20KT 6SM BR VCSH OVC015
     FM262100 31010KT P6SM VCSH BKN015
     FM270300 30005KT P6SM SCT025 BKN050
     FM270800 26002KT 3SM BR BKN007
     FM271500 25008G15KT P6SM BKN050=



000
FTUS42 KMHX 261400 AAA
TAFEWN
TAF AMD
KEWN 261401Z 2614/2712 14010G15KT 2SM +RA SCT005 OVC025
     FM261430 35012G20KT 4SM -RA OVC005
     FM261800 30012G17KT 5SM -RA BR SCT007 OVC015
     FM262100 30010G16KT P6SM VCSH BKN015
     FM270000 30005KT P6SM SCT025 BKN050=



000
FTUS42 KMHX 261100 CCA
TAFEWN
TAF COR
KEWN 261156Z 2612/2712 14010G15KT 5SM -RA SCT005 OVC015
     FM261330 35012G18KT 4SM -RA OVC007
     FM261800 30012G17KT 5SM -RA BR SCT007 OVC015
     FM262100 30010G16KT P6SM VCSH BKN015
     FM270000 30005KT P6SM SCT025 BKN050=



000
FTUS42 KMHX 261100
TAFEWN
TAF
KEWN 261136Z 2612/2712 36012G18KT 4SM -RA OVC005
      TEMPO 2612/2614 OVC002
     FM261800 30012G17KT 5SM -RA BR SCT007 OVC015
     FM262100 30010G16KT P6SM VCSH BKN015
     FM270000 30005KT P6SM SCT025 BKN050=



000
FTUS42 KMHX 260500
TAFEWN
TAF
KEWN 260533Z 2606/2706 05010G15KT 4SM -RA BR OVC004
     FM261200 36012G18KT 4SM -RA OVC005
     FM261800 31012G17KT 5SM -RA BR SCT007 OVC015
     FM262100 30010G16KT P6SM VCSH BKN015
     FM270000 30005KT P6SM BKN050=



000
FTUS42 KMHX 260300 AAA
TAFEWN
TAF AMD
KEWN 260337Z 2604/2624 01005KT 4SM -RA BR OVC005
     FM261700 33012G17KT 5SM -RA BR OVC015
     FM262100 30010G16KT P6SM VCSH BKN015 BKN050=



000
FTUS42 KMHX 252300 RRA
TAFEWN
TAF
KEWN 252358Z 2600/2624 VRB04KT 5SM -RA BR OVC015
      TEMPO 2603/2606 -RA BR OVC009
     FM260600 04005KT 3SM -RA BR OVC009
     FM261700 33012G17KT 5SM -RA BR OVC015
     FM262100 30010G16KT P6SM VCSH BKN015 BKN050=



000
FTUS42 KMHX 251700 AAA
TAFEWN
TAF AMD
KEWN 251746Z 2518/2618 25004KT P6SM SCT006 OVC090
      TEMPO 2518/2522 BKN006
     FM252300 33005KT 5SM -RA BR OVC030
     FM260400 02010G15KT 3SM RA OVC010
     FM261700 34012G17KT P6SM VCSH OVC030=



000
FTUS42 KMHX 251700
TAFEWN
TAF
KEWN 251723Z 2518/2618 25004KT P6SM SCT007 OVC090
     FM252300 33005KT 5SM -RA BR OVC030
     FM260400 02010G15KT 3SM RA OVC010
     FM261700 34012G17KT P6SM VCSH OVC030=



000
FTUS42 KMHX 251600 AAC
TAFEWN
TAF AMD
KEWN 251624Z 2516/2612 25004KT P6SM VCSH FEW007 OVC090
      TEMPO 2516/2519 3SM -RA BR OVC020
     FM251900 34005KT 4SM -RA BR OVC010
     FM260200 02006KT 4SM -RA BR OVC005=



000
FTUS42 KMHX 251500 AAB
TAFEWN
TAF AMD
KEWN 251512Z 2515/2612 26005KT P6SM VCSH FEW040 OVC070
      TEMPO 2515/2519 3SM -RA BR OVC020
     FM251900 34005KT 4SM -RA BR OVC010
     FM260200 02006KT 4SM -RA BR OVC005=



000
FTUS42 KMHX 251500 AAA
TAFEWN
TAF AMD
KEWN 251505Z 2515/2612 00000KT 3SM -RA BR SCT040 BKN060
      TEMPO 2515/2519 1SM RA OVC020
     FM251900 34005KT 4SM -RA BR OVC010
     FM260200 02006KT 4SM -RA BR OVC005=



000
FTUS42 KMHX 251100
TAFEWN
TAF
KEWN 251121Z 2512/2612 07003KT P6SM VCSH BKN050 BKN110
     FM251500 30007KT 5SM BR VCSH OVC015
     FM251900 34005KT 4SM -RA BR OVC010
     FM260200 02006KT 4SM -RA BR OVC005=



000
FTUS42 KMHX 250500
TAFEWN
TAF
KEWN 250521Z 2506/2606 21008KT P6SM VCSH BKN040 BKN100
     FM250800 20004KT 2SM BR VCSH OVC010
     FM251500 30007KT 5SM BR VCSH OVC015
     FM251900 34005KT 4SM -RA BR OVC010=



000
FTUS42 KMHX 250200 AAA
TAFEWN
TAF AMD
KEWN 250239Z 2503/2524 22007KT P6SM VCSH SCT010 BKN060
     FM250800 20004KT 2SM BR VCSH OVC010
     FM251500 30007KT 5SM BR VCSH OVC015=



000
FTUS42 KMHX 242300 RRA
TAFEWN
TAF
KEWN 242354Z 2500/2524 21009KT 6SM BR VCSH BKN010 BKN080
      TEMPO 2500/2503 BKN007
     FM250300 20004KT 2SM BR VCSH OVC007
     FM251500 30007KT 5SM BR VCSH OVC015=



000
FTUS42 KMHX 241800 AAA
TAFEWN
TAF AMD
KEWN 241858Z 2419/2518 17007KT P6SM VCSH OVC010
     FM250100 20004KT 5SM BR OVC010
     FM251000 24003KT 3SM BR VCSH OVC010
     FM251700 32008KT P6SM VCSH OVC010=



000
FTUS42 KMHX 241700
TAFEWN
TAF
KEWN 241720Z 2418/2518 21005KT 4SM -RA BR OVC010
     FM242000 19008KT P6SM VCSH SCT010 BKN020
     FM250100 20004KT 5SM BR OVC010
     FM251000 24003KT 3SM BR VCSH OVC010
     FM251700 32008KT P6SM VCSH OVC010=



000
FTUS42 KMHX 241500 AAA
TAFEWN
TAF AMD
KEWN 241504Z 2415/2512 21006KT P6SM BKN010 OVC040
     FM241900 20015G20KT P6SM VCSH SCT007 BKN025
     FM242300 19008KT 5SM BR OVC010
     FM250600 21004KT 3SM BR OVC005=



    US Dept of Commerce
    National Oceanic and Atmospheric Administration
    National Weather Service
    1325 East West Highway
    Silver Spring, MD 20910
    Page Author: NWS Internet Services Team
Disclaimer
Information Quality
Credits
Glossary
Privacy Policy
Freedom of Information Act (FOIA)
About Us
Career Opportunities